Main page
METAR-TAF:

METAR-TAF

Airports :

Cranfield Airport

Cranfield, England

latitude: 52-04N, longitude: 000-37W, elevation: 111 m

Current weather observation

The report was made 5 hours and 3 minutes ago, at 17:50 UTC
Wind 7 kt from the South/Southeast
Temperature 10°C
Humidity 82%
Pressure 1020 hPa
Visibility 10 km or more
no clouds below 1500 m and no cumulonimbus

METAR: EGTC 141750Z 16007KT CAVOK 10/07 Q1020

Time: 22:53 (22:53 UTC)

Forecast

The report was made 8 hours and 52 minutes ago, at 14:01 UTC
Forecast valid from 14 at 15 UTC to 14 at 19 UTC
Wind 12 kt from the South/Southwest
Visibility 10 km or more
Few clouds at a height of 2500 ft

TAF: EGTC 141401Z 1415/1419 20012KT 9999 FEW025

Weather observations and forecasts of more than 4000 airports (METAR and TAF reports).

The available stations are represented by yellow and red dots on the map.

Hover mouse over dot to see the name of the station.

Then click to see weather observations and forecasts.

To change the map : click on the green buttons with a black cross to zoom in, on the green button with a dash to zoom out, or on the green arrows for adjacent maps.


METAR-TAF: